EBOS/OST METAR and TAF weather

Enter ICAO airport designator
Station Type Date Time Source
EBOS METAR 2020/10/20 17:50 UTC NOAA

EBOS 201750Z 18011KT 9999 -RA NSC 14/12 Q1005 NOSIG


Station Type Date Time Source
EBOS Decoded METAR 2020/10/20 17:50 UTC NOAA

Oostende Airport , Belgium (EBOS) 51-12N 002-52E 5M
Oct 20, 2020 - 01:50 PM EDT / 2020.10.20 1750 UTC
Wind: from the S (180 degrees) at 13 MPH (11 KT):0
Visibility: greater than 7 mile(s):0
Weather: light rain
Temperature: 57 F (14 C)
Dew Point: 53 F (12 C)
Relative Humidity: 87%
Pressure (altimeter): 29.68 in. Hg (1005 hPa)
ob: EBOS 201750Z 18011KT 9999 -RA NSC 14/12 Q1005 NOSIG
cycle: 18

Station Type Date Time Source
EBOS TAF 2020/10/20 18:27 UTC NOAA

TAF EBOS 201710Z 2018/2124 17012KT 9999 -RA SCT030 PROB30
TEMPO 2018/2022 BKN012
TEMPO 2022/2108 4000 RA BKN009
BECMG 2106/2109 19018G28KT
TEMPO 2110/2118 21024G40KT PROB30
TEMPO 2112/2121 4000 SHRA BKN014CB
BECMG 2119/2121 21014KT

Example: see airport list